sensor_id;sensor_type;location;lat;lon;timestamp;P1;durP1;ratioP1;P2;durP2;ratioP2
38053;SDS011;23859;50.672;7.164;2023-05-17T00:00:30;8.63;;;2.65;;
38053;SDS011;23859;50.672;7.164;2023-05-17T00:02:56;5.20;;;2.17;;
38053;SDS011;23859;50.672;7.164;2023-05-17T00:05:23;11.48;;;2.25;;
38053;SDS011;23859;50.672;7.164;2023-05-17T00:07:49;3.85;;;2.00;;
38053;SDS011;23859;50.672;7.164;2023-05-17T00:10:15;7.55;;;2.00;;
38053;SDS011;23859;50.672;7.164;2023-05-17T00:12:41;10.55;;;2.38;;
38053;SDS011;23859;50.672;7.164;2023-05-17T00:15:07;6.15;;;2.45;;
38053;SDS011;23859;50.672;7.164;2023-05-17T00:17:34;6.68;;;2.40;;
38053;SDS011;23859;50.672;7.164;2023-05-17T00:20:02;7.65;;;2.60;;
38053;SDS011;23859;50.672;7.164;2023-05-17T00:22:29;4.60;;;2.17;;
38053;SDS011;23859;50.672;7.164;2023-05-17T00:24:55;5.97;;;2.42;;
38053;SDS011;23859;50.672;7.164;2023-05-17T00:27:21;7.32;;;2.92;;
38053;SDS011;23859;50.672;7.164;2023-05-17T00:29:47;7.25;;;2.47;;
38053;SDS011;23859;50.672;7.164;2023-05-17T00:32:13;7.03;;;1.98;;
38053;SDS011;23859;50.672;7.164;2023-05-17T00:34:39;11.57;;;2.60;;
38053;SDS011;23859;50.672;7.164;2023-05-17T00:37:06;11.90;;;1.95;;
38053;SDS011;23859;50.672;7.164;2023-05-17T00:39:32;4.13;;;2.65;;
38053;SDS011;23859;50.672;7.164;2023-05-17T00:41:58;10.93;;;2.78;;
38053;SDS011;23859;50.672;7.164;2023-05-17T00:44:25;7.00;;;2.28;;
38053;SDS011;23859;50.672;7.164;2023-05-17T00:46:51;8.10;;;2.55;;
38053;SDS011;23859;50.672;7.164;2023-05-17T00:49:17;8.98;;;2.35;;
38053;SDS011;23859;50.672;7.164;2023-05-17T00:51:43;8.82;;;2.25;;
38053;SDS011;23859;50.672;7.164;2023-05-17T00:54:10;9.10;;;2.35;;
38053;SDS011;23859;50.672;7.164;2023-05-17T00:56:36;9.50;;;2.05;;
38053;SDS011;23859;50.672;7.164;2023-05-17T00:59:03;5.97;;;2.30;;
38053;SDS011;23859;50.672;7.164;2023-05-17T01:01:30;8.75;;;2.25;;
38053;SDS011;23859;50.672;7.164;2023-05-17T01:03:59;4.25;;;1.90;;
38053;SDS011;23859;50.672;7.164;2023-05-17T01:06:25;8.48;;;2.10;;
38053;SDS011;23859;50.672;7.164;2023-05-17T01:08:51;5.78;;;2.13;;
38053;SDS011;23859;50.672;7.164;2023-05-17T01:14:19;7.50;;;2.20;;
38053;SDS011;23859;50.672;7.164;2023-05-17T01:17:11;7.10;;;2.25;;
38053;SDS011;23859;50.672;7.164;2023-05-17T01:20:02;7.95;;;2.83;;
38053;SDS011;23859;50.672;7.164;2023-05-17T01:22:51;7.53;;;2.67;;
38053;SDS011;23859;50.672;7.164;2023-05-17T01:25:28;9.57;;;2.50;;
38053;SDS011;23859;50.672;7.164;2023-05-17T01:28:18;8.20;;;2.40;;
38053;SDS011;23859;50.672;7.164;2023-05-17T01:30:46;9.93;;;3.00;;
38053;SDS011;23859;50.672;7.164;2023-05-17T01:33:16;6.43;;;2.22;;
38053;SDS011;23859;50.672;7.164;2023-05-17T01:35:44;6.55;;;3.00;;
38053;SDS011;23859;50.672;7.164;2023-05-17T01:38:10;6.75;;;2.40;;
38053;SDS011;23859;50.672;7.164;2023-05-17T01:40:38;15.85;;;2.85;;
38053;SDS011;23859;50.672;7.164;2023-05-17T01:43:24;12.23;;;3.30;;
38053;SDS011;23859;50.672;7.164;2023-05-17T01:46:09;12.30;;;3.30;;
38053;SDS011;23859;50.672;7.164;2023-05-17T01:48:48;12.85;;;3.95;;
38053;SDS011;23859;50.672;7.164;2023-05-17T01:51:38;8.57;;;2.95;;
38053;SDS011;23859;50.672;7.164;2023-05-17T01:54:13;5.18;;;3.25;;
38053;SDS011;23859;50.672;7.164;2023-05-17T01:56:46;8.60;;;3.10;;
38053;SDS011;23859;50.672;7.164;2023-05-17T01:59:19;5.78;;;3.25;;
38053;SDS011;23859;50.672;7.164;2023-05-17T02:01:50;6.10;;;3.53;;
38053;SDS011;23859;50.672;7.164;2023-05-17T02:04:19;4.72;;;3.28;;
38053;SDS011;23859;50.672;7.164;2023-05-17T02:06:45;8.18;;;4.28;;
38053;SDS011;23859;50.672;7.164;2023-05-17T02:09:11;8.55;;;3.22;;
38053;SDS011;23859;50.672;7.164;2023-05-17T02:11:37;12.43;;;3.90;;
38053;SDS011;23859;50.672;7.164;2023-05-17T02:14:03;7.10;;;3.90;;
38053;SDS011;23859;50.672;7.164;2023-05-17T02:16:30;5.60;;;2.90;;
38053;SDS011;23859;50.672;7.164;2023-05-17T02:18:56;5.47;;;3.40;;
38053;SDS011;23859;50.672;7.164;2023-05-17T02:21:22;8.25;;;2.90;;
38053;SDS011;23859;50.672;7.164;2023-05-17T02:23:48;7.32;;;3.83;;
38053;SDS011;23859;50.672;7.164;2023-05-17T02:26:15;10.15;;;3.78;;
38053;SDS011;23859;50.672;7.164;2023-05-17T02:28:41;12.85;;;3.97;;
38053;SDS011;23859;50.672;7.164;2023-05-17T02:31:07;10.43;;;3.92;;
38053;SDS011;23859;50.672;7.164;2023-05-17T02:33:33;8.77;;;3.08;;
38053;SDS011;23859;50.672;7.164;2023-05-17T02:35:59;9.10;;;3.50;;
38053;SDS011;23859;50.672;7.164;2023-05-17T02:38:25;6.82;;;4.00;;
38053;SDS011;23859;50.672;7.164;2023-05-17T02:40:51;7.13;;;3.92;;
38053;SDS011;23859;50.672;7.164;2023-05-17T02:43:18;12.68;;;4.15;;
38053;SDS011;23859;50.672;7.164;2023-05-17T02:45:44;6.13;;;4.18;;
38053;SDS011;23859;50.672;7.164;2023-05-17T02:48:10;13.30;;;3.97;;
38053;SDS011;23859;50.672;7.164;2023-05-17T02:50:36;9.32;;;3.88;;
38053;SDS011;23859;50.672;7.164;2023-05-17T02:53:02;13.23;;;3.70;;
38053;SDS011;23859;50.672;7.164;2023-05-17T02:55:28;13.10;;;3.95;;
38053;SDS011;23859;50.672;7.164;2023-05-17T02:57:54;14.40;;;3.70;;
38053;SDS011;23859;50.672;7.164;2023-05-17T03:00:20;7.93;;;4.55;;
38053;SDS011;23859;50.672;7.164;2023-05-17T03:02:46;12.30;;;4.10;;
38053;SDS011;23859;50.672;7.164;2023-05-17T03:05:12;14.23;;;3.90;;
38053;SDS011;23859;50.672;7.164;2023-05-17T03:07:38;13.02;;;4.28;;
38053;SDS011;23859;50.672;7.164;2023-05-17T03:10:05;9.07;;;4.13;;
38053;SDS011;23859;50.672;7.164;2023-05-17T03:12:31;16.17;;;4.32;;
38053;SDS011;23859;50.672;7.164;2023-05-17T03:14:58;10.25;;;4.70;;
38053;SDS011;23859;50.672;7.164;2023-05-17T03:17:24;11.60;;;3.90;;
38053;SDS011;23859;50.672;7.164;2023-05-17T03:19:50;8.68;;;4.75;;
38053;SDS011;23859;50.672;7.164;2023-05-17T03:22:16;9.07;;;3.92;;
38053;SDS011;23859;50.672;7.164;2023-05-17T03:24:42;14.30;;;5.05;;
38053;SDS011;23859;50.672;7.164;2023-05-17T03:27:08;11.15;;;4.22;;
38053;SDS011;23859;50.672;7.164;2023-05-17T03:29:34;18.10;;;4.07;;
38053;SDS011;23859;50.672;7.164;2023-05-17T03:32:00;12.48;;;4.32;;
38053;SDS011;23859;50.672;7.164;2023-05-17T03:34:26;13.98;;;4.32;;
38053;SDS011;23859;50.672;7.164;2023-05-17T03:36:52;13.52;;;4.25;;
38053;SDS011;23859;50.672;7.164;2023-05-17T03:39:18;13.30;;;4.18;;
38053;SDS011;23859;50.672;7.164;2023-05-17T03:41:44;10.25;;;5.53;;
38053;SDS011;23859;50.672;7.164;2023-05-17T03:44:10;13.63;;;4.72;;
38053;SDS011;23859;50.672;7.164;2023-05-17T03:46:37;11.80;;;4.80;;
38053;SDS011;23859;50.672;7.164;2023-05-17T03:49:03;13.93;;;5.60;;
38053;SDS011;23859;50.672;7.164;2023-05-17T03:51:29;15.15;;;4.80;;
38053;SDS011;23859;50.672;7.164;2023-05-17T03:53:58;15.48;;;5.40;;
38053;SDS011;23859;50.672;7.164;2023-05-17T03:56:25;15.25;;;5.22;;
38053;SDS011;23859;50.672;7.164;2023-05-17T03:58:51;8.77;;;4.65;;
38053;SDS011;23859;50.672;7.164;2023-05-17T04:01:17;15.77;;;5.32;;
38053;SDS011;23859;50.672;7.164;2023-05-17T04:03:44;14.52;;;5.05;;
38053;SDS011;23859;50.672;7.164;2023-05-17T04:06:12;10.98;;;4.63;;
38053;SDS011;23859;50.672;7.164;2023-05-17T04:08:38;12.90;;;5.75;;
38053;SDS011;23859;50.672;7.164;2023-05-17T04:11:05;9.43;;;4.72;;
38053;SDS011;23859;50.672;7.164;2023-05-17T04:13:36;12.57;;;4.60;;
38053;SDS011;23859;50.672;7.164;2023-05-17T04:16:03;12.60;;;4.78;;
38053;SDS011;23859;50.672;7.164;2023-05-17T04:18:32;11.30;;;4.47;;
38053;SDS011;23859;50.672;7.164;2023-05-17T04:21:00;10.35;;;4.18;;
38053;SDS011;23859;50.672;7.164;2023-05-17T04:23:28;16.70;;;4.93;;
38053;SDS011;23859;50.672;7.164;2023-05-17T04:25:55;16.80;;;5.28;;
38053;SDS011;23859;50.672;7.164;2023-05-17T04:28:22;12.07;;;6.25;;
38053;SDS011;23859;50.672;7.164;2023-05-17T04:30:48;12.80;;;5.22;;
38053;SDS011;23859;50.672;7.164;2023-05-17T04:33:14;12.70;;;5.13;;
38053;SDS011;23859;50.672;7.164;2023-05-17T04:35:41;18.75;;;5.50;;
38053;SDS011;23859;50.672;7.164;2023-05-17T04:38:08;9.98;;;4.70;;
38053;SDS011;23859;50.672;7.164;2023-05-17T04:40:35;19.30;;;5.35;;
38053;SDS011;23859;50.672;7.164;2023-05-17T04:43:01;14.13;;;5.47;;
38053;SDS011;23859;50.672;7.164;2023-05-17T04:45:27;19.60;;;5.50;;
38053;SDS011;23859;50.672;7.164;2023-05-17T04:47:54;11.75;;;5.28;;
38053;SDS011;23859;50.672;7.164;2023-05-17T04:50:20;14.80;;;4.97;;
38053;SDS011;23859;50.672;7.164;2023-05-17T04:52:46;15.75;;;5.25;;
38053;SDS011;23859;50.672;7.164;2023-05-17T04:55:12;10.32;;;5.90;;
38053;SDS011;23859;50.672;7.164;2023-05-17T04:57:38;14.95;;;5.78;;
38053;SDS011;23859;50.672;7.164;2023-05-17T05:00:05;13.38;;;6.00;;
38053;SDS011;23859;50.672;7.164;2023-05-17T05:02:33;20.02;;;5.63;;
38053;SDS011;23859;50.672;7.164;2023-05-17T05:05:00;13.32;;;5.72;;
38053;SDS011;23859;50.672;7.164;2023-05-17T05:07:26;12.80;;;5.97;;
38053;SDS011;23859;50.672;7.164;2023-05-17T05:09:52;11.23;;;6.05;;
38053;SDS011;23859;50.672;7.164;2023-05-17T05:12:18;10.80;;;6.35;;
38053;SDS011;23859;50.672;7.164;2023-05-17T05:14:44;15.60;;;5.95;;
38053;SDS011;23859;50.672;7.164;2023-05-17T05:17:10;18.42;;;5.97;;
38053;SDS011;23859;50.672;7.164;2023-05-17T05:19:36;18.33;;;6.65;;
38053;SDS011;23859;50.672;7.164;2023-05-17T05:22:02;23.33;;;7.68;;
38053;SDS011;23859;50.672;7.164;2023-05-17T05:24:28;20.83;;;6.90;;
38053;SDS011;23859;50.672;7.164;2023-05-17T05:26:54;20.73;;;7.43;;
38053;SDS011;23859;50.672;7.164;2023-05-17T05:29:21;19.63;;;7.63;;
38053;SDS011;23859;50.672;7.164;2023-05-17T05:31:47;21.67;;;9.57;;
38053;SDS011;23859;50.672;7.164;2023-05-17T05:34:13;21.48;;;8.77;;
38053;SDS011;23859;50.672;7.164;2023-05-17T05:36:39;22.30;;;9.55;;
38053;SDS011;23859;50.672;7.164;2023-05-17T05:39:05;19.77;;;8.73;;
38053;SDS011;23859;50.672;7.164;2023-05-17T05:41:32;20.73;;;9.70;;
38053;SDS011;23859;50.672;7.164;2023-05-17T05:43:58;17.88;;;8.93;;
38053;SDS011;23859;50.672;7.164;2023-05-17T05:46:25;23.85;;;10.38;;
38053;SDS011;23859;50.672;7.164;2023-05-17T05:48:51;27.40;;;12.07;;
38053;SDS011;23859;50.672;7.164;2023-05-17T05:51:17;23.42;;;10.13;;
38053;SDS011;23859;50.672;7.164;2023-05-17T05:53:43;34.08;;;11.73;;
38053;SDS011;23859;50.672;7.164;2023-05-17T05:56:09;29.15;;;12.05;;
38053;SDS011;23859;50.672;7.164;2023-05-17T05:58:35;34.45;;;12.13;;
38053;SDS011;23859;50.672;7.164;2023-05-17T06:01:02;39.38;;;12.23;;
38053;SDS011;23859;50.672;7.164;2023-05-17T06:03:28;27.08;;;12.75;;
38053;SDS011;23859;50.672;7.164;2023-05-17T06:05:54;26.35;;;11.75;;
38053;SDS011;23859;50.672;7.164;2023-05-17T06:08:20;32.60;;;12.57;;
38053;SDS011;23859;50.672;7.164;2023-05-17T06:10:46;33.55;;;14.55;;
38053;SDS011;23859;50.672;7.164;2023-05-17T06:13:12;36.40;;;14.40;;
38053;SDS011;23859;50.672;7.164;2023-05-17T06:15:39;33.53;;;15.00;;
38053;SDS011;23859;50.672;7.164;2023-05-17T06:18:05;32.15;;;14.55;;
38053;SDS011;23859;50.672;7.164;2023-05-17T06:20:31;30.55;;;14.68;;
38053;SDS011;23859;50.672;7.164;2023-05-17T06:22:57;37.63;;;16.23;;
38053;SDS011;23859;50.672;7.164;2023-05-17T06:25:23;42.45;;;18.17;;
38053;SDS011;23859;50.672;7.164;2023-05-17T06:27:49;39.65;;;18.52;;
38053;SDS011;23859;50.672;7.164;2023-05-17T06:30:15;46.17;;;17.75;;
38053;SDS011;23859;50.672;7.164;2023-05-17T06:32:41;37.55;;;16.58;;
38053;SDS011;23859;50.672;7.164;2023-05-17T06:35:07;38.05;;;17.80;;
38053;SDS011;23859;50.672;7.164;2023-05-17T06:37:34;37.63;;;16.35;;
38053;SDS011;23859;50.672;7.164;2023-05-17T06:40:03;37.83;;;16.30;;
38053;SDS011;23859;50.672;7.164;2023-05-17T06:42:34;37.83;;;16.25;;
38053;SDS011;23859;50.672;7.164;2023-05-17T06:45:00;30.52;;;15.25;;
38053;SDS011;23859;50.672;7.164;2023-05-17T06:47:26;45.67;;;16.40;;
38053;SDS011;23859;50.672;7.164;2023-05-17T06:49:52;35.72;;;14.90;;
38053;SDS011;23859;50.672;7.164;2023-05-17T06:52:18;44.03;;;18.35;;
38053;SDS011;23859;50.672;7.164;2023-05-17T06:54:44;40.35;;;16.45;;
38053;SDS011;23859;50.672;7.164;2023-05-17T06:57:10;36.83;;;15.93;;
38053;SDS011;23859;50.672;7.164;2023-05-17T06:59:36;36.30;;;15.75;;
38053;SDS011;23859;50.672;7.164;2023-05-17T07:02:02;39.55;;;18.38;;
38053;SDS011;23859;50.672;7.164;2023-05-17T07:04:29;44.80;;;19.35;;
38053;SDS011;23859;50.672;7.164;2023-05-17T07:06:56;55.13;;;20.90;;
38053;SDS011;23859;50.672;7.164;2023-05-17T07:09:22;44.42;;;19.38;;
38053;SDS011;23859;50.672;7.164;2023-05-17T07:11:48;54.17;;;22.35;;
38053;SDS011;23859;50.672;7.164;2023-05-17T07:14:14;45.92;;;21.00;;
38053;SDS011;23859;50.672;7.164;2023-05-17T07:16:40;43.42;;;21.02;;
38053;SDS011;23859;50.672;7.164;2023-05-17T07:19:07;54.92;;;24.40;;
38053;SDS011;23859;50.672;7.164;2023-05-17T07:21:33;51.80;;;24.33;;
38053;SDS011;23859;50.672;7.164;2023-05-17T07:23:59;59.65;;;27.10;;
38053;SDS011;23859;50.672;7.164;2023-05-17T07:26:25;50.53;;;26.50;;
38053;SDS011;23859;50.672;7.164;2023-05-17T07:28:51;50.00;;;24.65;;
38053;SDS011;23859;50.672;7.164;2023-05-17T07:31:17;49.00;;;21.85;;
38053;SDS011;23859;50.672;7.164;2023-05-17T07:33:44;44.22;;;22.30;;
38053;SDS011;23859;50.672;7.164;2023-05-17T07:36:10;44.25;;;21.95;;
38053;SDS011;23859;50.672;7.164;2023-05-17T07:38:36;53.47;;;20.95;;
38053;SDS011;23859;50.672;7.164;2023-05-17T07:41:02;40.10;;;19.95;;
38053;SDS011;23859;50.672;7.164;2023-05-17T07:43:28;36.55;;;18.83;;
38053;SDS011;23859;50.672;7.164;2023-05-17T07:45:54;44.28;;;19.08;;
38053;SDS011;23859;50.672;7.164;2023-05-17T07:48:21;38.38;;;17.77;;
38053;SDS011;23859;50.672;7.164;2023-05-17T07:50:47;52.83;;;19.83;;
38053;SDS011;23859;50.672;7.164;2023-05-17T07:53:13;36.00;;;17.98;;
38053;SDS011;23859;50.672;7.164;2023-05-17T07:55:40;33.38;;;15.40;;
38053;SDS011;23859;50.672;7.164;2023-05-17T07:58:08;32.10;;;14.52;;
38053;SDS011;23859;50.672;7.164;2023-05-17T08:00:35;31.92;;;14.70;;
38053;SDS011;23859;50.672;7.164;2023-05-17T08:03:02;28.40;;;13.30;;
38053;SDS011;23859;50.672;7.164;2023-05-17T08:05:28;30.17;;;11.85;;
38053;SDS011;23859;50.672;7.164;2023-05-17T08:07:54;30.33;;;12.80;;
38053;SDS011;23859;50.672;7.164;2023-05-17T08:10:24;24.00;;;10.68;;
38053;SDS011;23859;50.672;7.164;2023-05-17T08:12:51;29.23;;;11.60;;
38053;SDS011;23859;50.672;7.164;2023-05-17T08:15:20;30.27;;;11.40;;
38053;SDS011;23859;50.672;7.164;2023-05-17T08:17:46;27.92;;;11.70;;
38053;SDS011;23859;50.672;7.164;2023-05-17T08:20:12;25.23;;;10.38;;
38053;SDS011;23859;50.672;7.164;2023-05-17T08:22:39;19.98;;;9.75;;
38053;SDS011;23859;50.672;7.164;2023-05-17T08:25:05;22.73;;;9.27;;
38053;SDS011;23859;50.672;7.164;2023-05-17T08:27:32;20.65;;;7.90;;
38053;SDS011;23859;50.672;7.164;2023-05-17T08:29:58;20.17;;;8.35;;
38053;SDS011;23859;50.672;7.164;2023-05-17T08:32:24;16.65;;;8.23;;
38053;SDS011;23859;50.672;7.164;2023-05-17T08:34:51;15.43;;;7.45;;
38053;SDS011;23859;50.672;7.164;2023-05-17T08:37:17;19.60;;;8.63;;
38053;SDS011;23859;50.672;7.164;2023-05-17T08:39:43;20.05;;;7.82;;
38053;SDS011;23859;50.672;7.164;2023-05-17T08:42:09;14.57;;;6.15;;
38053;SDS011;23859;50.672;7.164;2023-05-17T08:44:36;15.45;;;5.80;;
38053;SDS011;23859;50.672;7.164;2023-05-17T08:47:03;21.65;;;5.47;;
38053;SDS011;23859;50.672;7.164;2023-05-17T08:49:30;13.68;;;4.93;;
38053;SDS011;23859;50.672;7.164;2023-05-17T08:51:59;12.98;;;4.35;;
38053;SDS011;23859;50.672;7.164;2023-05-17T08:54:27;13.45;;;4.43;;
38053;SDS011;23859;50.672;7.164;2023-05-17T08:56:54;12.38;;;4.80;;
38053;SDS011;23859;50.672;7.164;2023-05-17T08:59:24;8.57;;;3.45;;
38053;SDS011;23859;50.672;7.164;2023-05-17T09:04:24;9.35;;;3.83;;
38053;SDS011;23859;50.672;7.164;2023-05-17T09:06:51;9.02;;;2.90;;
38053;SDS011;23859;50.672;7.164;2023-05-17T09:09:17;15.30;;;3.88;;
38053;SDS011;23859;50.672;7.164;2023-05-17T09:11:44;9.73;;;3.00;;
38053;SDS011;23859;50.672;7.164;2023-05-17T09:14:10;10.35;;;2.90;;
38053;SDS011;23859;50.672;7.164;2023-05-17T09:16:38;10.10;;;3.30;;
38053;SDS011;23859;50.672;7.164;2023-05-17T09:19:05;8.20;;;2.40;;
38053;SDS011;23859;50.672;7.164;2023-05-17T09:21:32;7.63;;;2.40;;
38053;SDS011;23859;50.672;7.164;2023-05-17T09:23:59;7.72;;;2.97;;
38053;SDS011;23859;50.672;7.164;2023-05-17T09:26:30;5.07;;;2.00;;
38053;SDS011;23859;50.672;7.164;2023-05-17T09:29:06;6.65;;;1.60;;
38053;SDS011;23859;50.672;7.164;2023-05-17T09:31:39;11.02;;;2.90;;
38053;SDS011;23859;50.672;7.164;2023-05-17T09:34:06;11.15;;;3.08;;
38053;SDS011;23859;50.672;7.164;2023-05-17T09:36:32;9.02;;;2.03;;
38053;SDS011;23859;50.672;7.164;2023-05-17T09:39:06;6.70;;;2.30;;
38053;SDS011;23859;50.672;7.164;2023-05-17T09:41:43;6.30;;;1.90;;
38053;SDS011;23859;50.672;7.164;2023-05-17T09:44:11;6.53;;;2.40;;
38053;SDS011;23859;50.672;7.164;2023-05-17T09:46:44;10.50;;;2.28;;
38053;SDS011;23859;50.672;7.164;2023-05-17T09:49:12;9.18;;;2.50;;
38053;SDS011;23859;50.672;7.164;2023-05-17T09:51:42;8.25;;;2.20;;
38053;SDS011;23859;50.672;7.164;2023-05-17T09:54:10;8.38;;;2.67;;
38053;SDS011;23859;50.672;7.164;2023-05-17T09:56:37;7.25;;;1.95;;
38053;SDS011;23859;50.672;7.164;2023-05-17T09:59:09;4.40;;;1.80;;
38053;SDS011;23859;50.672;7.164;2023-05-17T10:01:36;7.18;;;2.17;;
38053;SDS011;23859;50.672;7.164;2023-05-17T10:04:06;9.57;;;2.50;;
38053;SDS011;23859;50.672;7.164;2023-05-17T10:06:34;8.93;;;2.05;;
38053;SDS011;23859;50.672;7.164;2023-05-17T10:09:03;10.75;;;2.58;;
38053;SDS011;23859;50.672;7.164;2023-05-17T10:11:33;6.30;;;2.33;;
38053;SDS011;23859;50.672;7.164;2023-05-17T10:14:04;10.52;;;2.47;;
38053;SDS011;23859;50.672;7.164;2023-05-17T10:16:37;7.78;;;1.98;;
38053;SDS011;23859;50.672;7.164;2023-05-17T10:19:04;9.70;;;2.17;;
38053;SDS011;23859;50.672;7.164;2023-05-17T10:21:30;8.48;;;2.10;;
38053;SDS011;23859;50.672;7.164;2023-05-17T10:23:57;7.70;;;2.15;;
38053;SDS011;23859;50.672;7.164;2023-05-17T10:26:25;6.68;;;1.77;;
38053;SDS011;23859;50.672;7.164;2023-05-17T10:28:52;9.45;;;2.60;;
38053;SDS011;23859;50.672;7.164;2023-05-17T10:31:29;8.13;;;2.65;;
38053;SDS011;23859;50.672;7.164;2023-05-17T10:34:00;10.40;;;2.30;;
38053;SDS011;23859;50.672;7.164;2023-05-17T10:36:28;8.23;;;1.83;;
38053;SDS011;23859;50.672;7.164;2023-05-17T10:38:55;6.18;;;2.00;;
38053;SDS011;23859;50.672;7.164;2023-05-17T10:41:23;6.72;;;1.77;;
38053;SDS011;23859;50.672;7.164;2023-05-17T10:43:52;7.70;;;2.22;;
38053;SDS011;23859;50.672;7.164;2023-05-17T10:46:20;5.00;;;1.60;;
38053;SDS011;23859;50.672;7.164;2023-05-17T10:48:51;7.70;;;1.75;;
38053;SDS011;23859;50.672;7.164;2023-05-17T10:51:22;9.00;;;3.30;;
38053;SDS011;23859;50.672;7.164;2023-05-17T10:54:08;8.43;;;2.10;;
38053;SDS011;23859;50.672;7.164;2023-05-17T10:56:39;14.68;;;2.38;;
38053;SDS011;23859;50.672;7.164;2023-05-17T10:59:16;8.88;;;2.17;;
38053;SDS011;23859;50.672;7.164;2023-05-17T11:04:40;7.90;;;2.13;;
38053;SDS011;23859;50.672;7.164;2023-05-17T11:15:10;10.43;;;2.33;;
38053;SDS011;23859;50.672;7.164;2023-05-17T11:22:41;7.07;;;1.95;;
38053;SDS011;23859;50.672;7.164;2023-05-17T11:25:13;10.80;;;2.42;;
38053;SDS011;23859;50.672;7.164;2023-05-17T11:27:44;9.85;;;2.17;;
38053;SDS011;23859;50.672;7.164;2023-05-17T11:32:53;5.72;;;2.10;;
38053;SDS011;23859;50.672;7.164;2023-05-17T11:35:27;7.40;;;1.73;;
38053;SDS011;23859;50.672;7.164;2023-05-17T11:40:49;10.13;;;1.92;;
38053;SDS011;23859;50.672;7.164;2023-05-17T11:43:21;9.15;;;1.90;;
38053;SDS011;23859;50.672;7.164;2023-05-17T11:45:49;7.65;;;1.50;;
38053;SDS011;23859;50.672;7.164;2023-05-17T11:48:18;7.45;;;1.70;;
38053;SDS011;23859;50.672;7.164;2023-05-17T11:50:47;8.90;;;1.90;;
38053;SDS011;23859;50.672;7.164;2023-05-17T11:53:15;5.63;;;2.28;;
38053;SDS011;23859;50.672;7.164;2023-05-17T11:58:09;10.23;;;2.30;;
38053;SDS011;23859;50.672;7.164;2023-05-17T12:00:38;7.95;;;1.90;;
38053;SDS011;23859;50.672;7.164;2023-05-17T12:03:15;5.28;;;1.80;;
38053;SDS011;23859;50.672;7.164;2023-05-17T12:06:14;10.27;;;2.10;;
38053;SDS011;23859;50.672;7.164;2023-05-17T12:08:42;5.82;;;1.85;;
38053;SDS011;23859;50.672;7.164;2023-05-17T12:11:10;5.20;;;1.80;;
38053;SDS011;23859;50.672;7.164;2023-05-17T12:13:41;5.20;;;1.67;;
38053;SDS011;23859;50.672;7.164;2023-05-17T12:16:11;8.73;;;1.88;;
38053;SDS011;23859;50.672;7.164;2023-05-17T12:18:40;10.15;;;2.22;;
38053;SDS011;23859;50.672;7.164;2023-05-17T12:21:13;9.13;;;2.10;;
38053;SDS011;23859;50.672;7.164;2023-05-17T12:23:40;6.07;;;2.35;;
38053;SDS011;23859;50.672;7.164;2023-05-17T12:26:08;9.25;;;2.88;;
38053;SDS011;23859;50.672;7.164;2023-05-17T12:28:36;10.45;;;2.15;;
38053;SDS011;23859;50.672;7.164;2023-05-17T12:31:04;10.60;;;1.83;;
38053;SDS011;23859;50.672;7.164;2023-05-17T12:33:34;6.72;;;2.13;;
38053;SDS011;23859;50.672;7.164;2023-05-17T12:36:03;8.55;;;2.08;;
38053;SDS011;23859;50.672;7.164;2023-05-17T12:38:31;4.70;;;1.58;;
38053;SDS011;23859;50.672;7.164;2023-05-17T12:41:01;5.88;;;2.15;;
38053;SDS011;23859;50.672;7.164;2023-05-17T12:43:31;7.45;;;2.15;;
38053;SDS011;23859;50.672;7.164;2023-05-17T12:46:01;6.55;;;1.85;;
38053;SDS011;23859;50.672;7.164;2023-05-17T12:48:36;10.00;;;2.72;;
38053;SDS011;23859;50.672;7.164;2023-05-17T12:51:08;10.65;;;2.33;;
38053;SDS011;23859;50.672;7.164;2023-05-17T12:53:42;7.43;;;1.90;;
38053;SDS011;23859;50.672;7.164;2023-05-17T12:56:13;7.43;;;2.10;;
38053;SDS011;23859;50.672;7.164;2023-05-17T12:58:41;8.55;;;2.47;;
38053;SDS011;23859;50.672;7.164;2023-05-17T13:01:08;7.80;;;2.25;;
38053;SDS011;23859;50.672;7.164;2023-05-17T13:03:38;4.53;;;1.92;;
38053;SDS011;23859;50.672;7.164;2023-05-17T13:06:05;7.30;;;1.85;;
38053;SDS011;23859;50.672;7.164;2023-05-17T13:08:34;6.95;;;1.90;;
38053;SDS011;23859;50.672;7.164;2023-05-17T13:11:07;6.53;;;1.95;;
38053;SDS011;23859;50.672;7.164;2023-05-17T13:13:34;9.23;;;1.88;;
38053;SDS011;23859;50.672;7.164;2023-05-17T13:16:01;6.80;;;2.53;;
38053;SDS011;23859;50.672;7.164;2023-05-17T13:18:27;5.57;;;2.40;;
38053;SDS011;23859;50.672;7.164;2023-05-17T13:20:53;9.13;;;1.70;;
38053;SDS011;23859;50.672;7.164;2023-05-17T13:23:19;4.22;;;1.70;;
38053;SDS011;23859;50.672;7.164;2023-05-17T13:25:45;8.15;;;2.00;;
38053;SDS011;23859;50.672;7.164;2023-05-17T13:28:11;11.68;;;2.45;;
38053;SDS011;23859;50.672;7.164;2023-05-17T13:30:37;8.23;;;2.40;;
38053;SDS011;23859;50.672;7.164;2023-05-17T13:33:03;9.98;;;2.20;;
38053;SDS011;23859;50.672;7.164;2023-05-17T13:35:30;5.82;;;1.63;;
38053;SDS011;23859;50.672;7.164;2023-05-17T13:37:56;8.60;;;1.92;;
38053;SDS011;23859;50.672;7.164;2023-05-17T13:40:22;9.50;;;3.08;;
38053;SDS011;23859;50.672;7.164;2023-05-17T13:42:48;8.45;;;2.10;;
38053;SDS011;23859;50.672;7.164;2023-05-17T13:45:14;7.63;;;2.10;;
38053;SDS011;23859;50.672;7.164;2023-05-17T13:47:40;5.68;;;1.80;;
38053;SDS011;23859;50.672;7.164;2023-05-17T13:50:06;5.95;;;1.83;;
38053;SDS011;23859;50.672;7.164;2023-05-17T13:52:33;7.07;;;2.38;;
38053;SDS011;23859;50.672;7.164;2023-05-17T13:54:59;7.50;;;1.65;;
38053;SDS011;23859;50.672;7.164;2023-05-17T13:57:25;6.82;;;1.95;;
38053;SDS011;23859;50.672;7.164;2023-05-17T13:59:52;11.57;;;2.22;;
38053;SDS011;23859;50.672;7.164;2023-05-17T14:02:18;10.15;;;2.40;;
38053;SDS011;23859;50.672;7.164;2023-05-17T14:04:44;6.43;;;1.85;;
38053;SDS011;23859;50.672;7.164;2023-05-17T14:07:10;11.48;;;2.03;;
38053;SDS011;23859;50.672;7.164;2023-05-17T14:09:36;7.97;;;2.05;;
38053;SDS011;23859;50.672;7.164;2023-05-17T14:12:03;4.15;;;2.22;;
38053;SDS011;23859;50.672;7.164;2023-05-17T14:14:29;7.65;;;2.05;;
38053;SDS011;23859;50.672;7.164;2023-05-17T14:16:56;11.43;;;2.15;;
38053;SDS011;23859;50.672;7.164;2023-05-17T14:19:22;12.70;;;1.98;;
38053;SDS011;23859;50.672;7.164;2023-05-17T14:21:48;10.38;;;2.03;;
38053;SDS011;23859;50.672;7.164;2023-05-17T14:24:14;6.95;;;1.85;;
38053;SDS011;23859;50.672;7.164;2023-05-17T14:26:40;11.65;;;2.20;;
38053;SDS011;23859;50.672;7.164;2023-05-17T14:29:06;11.52;;;2.30;;
38053;SDS011;23859;50.672;7.164;2023-05-17T14:31:32;6.00;;;1.90;;
38053;SDS011;23859;50.672;7.164;2023-05-17T14:33:59;8.00;;;2.55;;
38053;SDS011;23859;50.672;7.164;2023-05-17T14:36:27;8.63;;;1.98;;
38053;SDS011;23859;50.672;7.164;2023-05-17T14:38:53;8.05;;;2.13;;
38053;SDS011;23859;50.672;7.164;2023-05-17T14:41:19;10.65;;;1.83;;
38053;SDS011;23859;50.672;7.164;2023-05-17T14:43:46;11.75;;;2.00;;
38053;SDS011;23859;50.672;7.164;2023-05-17T14:46:12;8.05;;;1.80;;
38053;SDS011;23859;50.672;7.164;2023-05-17T14:48:41;8.20;;;2.00;;
38053;SDS011;23859;50.672;7.164;2023-05-17T14:51:07;14.57;;;2.92;;
38053;SDS011;23859;50.672;7.164;2023-05-17T14:53:33;6.25;;;2.15;;
38053;SDS011;23859;50.672;7.164;2023-05-17T14:55:59;6.03;;;2.15;;
38053;SDS011;23859;50.672;7.164;2023-05-17T14:58:26;8.30;;;1.67;;
38053;SDS011;23859;50.672;7.164;2023-05-17T15:00:52;7.53;;;2.00;;
38053;SDS011;23859;50.672;7.164;2023-05-17T15:03:22;8.38;;;1.83;;
38053;SDS011;23859;50.672;7.164;2023-05-17T15:05:52;7.53;;;1.90;;
38053;SDS011;23859;50.672;7.164;2023-05-17T15:08:20;8.75;;;1.85;;
38053;SDS011;23859;50.672;7.164;2023-05-17T15:10:47;6.47;;;1.70;;